Skip Navigation Links
NOAA logo - Click to go to the NOAA homepage
NOAA's National Weather Service
Alaska Aviation Weather Unit
  NWS logo - Click to go to the NWS homepage
Left Navbar Graphic     09 AKDT = 17 GMT

   
NOAA is celebrating 200 years of science, service, and stewardship. Visit the NOAA 200th celebration Web site to learn more.
USA.gov is the U.S. Government's official Web portal to all Federal, state and local government Web resources and services.
Facebook
NWS on Facebook

Important Change Regarding the AAWU Web Presence

 

Over the last several months, the AAWU has been working to navigate its webpages to a nationally supported server. Security, as well as other needs, have necessitated the change.  In the process, we have made an effort to enhance the functionality of our website, as well as some of our products. As of June 20, 2017, aawu.arh.noaa.gov will be discontinued. The new AAWU web address is weather.gov/aawu. It is now live and will run in-parallel with the old site until it is discontinued. Please send any feedback or questions regarding the new webpages to nws.ar.aawu.webauthors@noaa.gov.  Thank you for your patience during this time of transition.
AAWU Home :: Display TAF Add Bookmark
TAF PAMC 271124Z 2712/2812 VRB06KT P6SM FEW050 SCT100 BKN200
     FM272100 VRB06KT P6SM VCSH SCT050 BKN100 BKN200
     FM280600 VRB06KT P6SM SCT050 BKN100 BKN200=
METAR PAMC 271153Z AUTO 13003KT 10SM OVC041 03/01 A3001 RMK AO2 SLP168
     60000 70001 T00330011 10056 20033 53002 TSNO=

METAR PAMC 271253Z AUTO 00000KT 10SM FEW120 03/01 A3001 RMK AO2
 SLP169 T00280011 TSNO=

METAR PAMC 271353Z AUTO 00000KT 8SM BKN070 OVC100 02/01 A3002 RMK AO2
     SLP170 T00220006 TSNO=

METAR PAMC 271453Z AUTO 29003KT 10SM SCT080 02/01 A3002 RMK AO2 SLP170
     T00220006 51002 TSNO=

METAR PAMC 271553Z AUTO 12005KT 10SM FEW070 04/01 A3002 RMK AO2
 SLP172 T00390011 TSNO=

METAR PAMC 271653Z AUTO 11005KT 10SM BKN055 05/02 A3002 RMK AO2 SLP172
     T00500017 TSNO=


NOAA's National Weather Service
Alaska Aviation Weather Unit
6930 Sand Lake Road
Anchorage, AK 99502-1845
Disclaimer
Credits
Glossary
Privacy Policy
About Us
Career Opportunities
Contact AAWU Internet Services Site last modified: April, 17th 2012